sensor_id;sensor_type;location;lat;lon;timestamp;pressure;altitude;pressure_sealevel;temperature;humidity
64080;BME280;51042;49.696;10.808;2023-09-07T00:00:23;98886.16;;;15.02;100.00
64080;BME280;51042;49.696;10.808;2023-09-07T00:02:49;98885.22;;;14.96;100.00
64080;BME280;51042;49.696;10.808;2023-09-07T00:05:14;98892.56;;;14.90;100.00
64080;BME280;51042;49.696;10.808;2023-09-07T00:07:39;98889.50;;;14.88;100.00
64080;BME280;51042;49.696;10.808;2023-09-07T00:10:04;98895.78;;;14.89;100.00
64080;BME280;51042;49.696;10.808;2023-09-07T00:12:30;98906.84;;;14.89;100.00
64080;BME280;51042;49.696;10.808;2023-09-07T00:14:55;98900.06;;;14.90;100.00
64080;BME280;51042;49.696;10.808;2023-09-07T00:17:21;98900.84;;;14.90;100.00
64080;BME280;51042;49.696;10.808;2023-09-07T00:19:46;98904.19;;;14.85;100.00
64080;BME280;51042;49.696;10.808;2023-09-07T00:22:14;98900.66;;;14.85;100.00
64080;BME280;51042;49.696;10.808;2023-09-07T00:24:39;98895.72;;;14.80;100.00
64080;BME280;51042;49.696;10.808;2023-09-07T00:27:04;98895.09;;;14.76;100.00
64080;BME280;51042;49.696;10.808;2023-09-07T00:29:31;98894.13;;;14.69;100.00
64080;BME280;51042;49.696;10.808;2023-09-07T00:31:56;98894.56;;;14.68;100.00
64080;BME280;51042;49.696;10.808;2023-09-07T00:34:21;98896.69;;;14.64;100.00
64080;BME280;51042;49.696;10.808;2023-09-07T00:36:46;98897.72;;;14.57;100.00
64080;BME280;51042;49.696;10.808;2023-09-07T00:39:11;98893.09;;;14.54;100.00
64080;BME280;51042;49.696;10.808;2023-09-07T00:41:37;98899.53;;;14.51;100.00
64080;BME280;51042;49.696;10.808;2023-09-07T00:44:02;98894.44;;;14.50;100.00
64080;BME280;51042;49.696;10.808;2023-09-07T00:46:27;98898.41;;;14.49;100.00
64080;BME280;51042;49.696;10.808;2023-09-07T00:48:53;98899.78;;;14.44;100.00
64080;BME280;51042;49.696;10.808;2023-09-07T00:51:18;98886.97;;;14.38;100.00
64080;BME280;51042;49.696;10.808;2023-09-07T00:53:43;98897.25;;;14.37;100.00
64080;BME280;51042;49.696;10.808;2023-09-07T00:56:09;98886.44;;;14.30;100.00
64080;BME280;51042;49.696;10.808;2023-09-07T00:58:34;98892.72;;;14.30;100.00
64080;BME280;51042;49.696;10.808;2023-09-07T01:00:59;98884.72;;;14.23;100.00
64080;BME280;51042;49.696;10.808;2023-09-07T01:03:25;98889.47;;;14.23;100.00
64080;BME280;51042;49.696;10.808;2023-09-07T01:08:44;98890.34;;;14.20;100.00
64080;BME280;51042;49.696;10.808;2023-09-07T01:11:15;98879.44;;;14.16;100.00
64080;BME280;51042;49.696;10.808;2023-09-07T01:13:40;98882.63;;;14.15;100.00
64080;BME280;51042;49.696;10.808;2023-09-07T01:16:06;98884.75;;;14.11;100.00
64080;BME280;51042;49.696;10.808;2023-09-07T01:18:32;98883.00;;;14.04;100.00
64080;BME280;51042;49.696;10.808;2023-09-07T01:20:57;98881.13;;;14.01;100.00
64080;BME280;51042;49.696;10.808;2023-09-07T01:23:23;98883.56;;;13.99;100.00
64080;BME280;51042;49.696;10.808;2023-09-07T01:25:48;98881.25;;;13.98;100.00
64080;BME280;51042;49.696;10.808;2023-09-07T01:28:14;98878.94;;;13.96;100.00
64080;BME280;51042;49.696;10.808;2023-09-07T01:30:40;98875.53;;;13.92;100.00
64080;BME280;51042;49.696;10.808;2023-09-07T01:33:05;98873.56;;;13.93;100.00
64080;BME280;51042;49.696;10.808;2023-09-07T01:35:31;98879.63;;;13.87;100.00
64080;BME280;51042;49.696;10.808;2023-09-07T01:37:56;98878.88;;;13.87;100.00
64080;BME280;51042;49.696;10.808;2023-09-07T01:40:21;98880.50;;;13.84;100.00
64080;BME280;51042;49.696;10.808;2023-09-07T01:42:47;98872.38;;;13.81;100.00
64080;BME280;51042;49.696;10.808;2023-09-07T01:45:12;98878.56;;;13.72;100.00
64080;BME280;51042;49.696;10.808;2023-09-07T01:47:37;98883.41;;;13.68;100.00
64080;BME280;51042;49.696;10.808;2023-09-07T01:50:02;98877.25;;;13.64;100.00
64080;BME280;51042;49.696;10.808;2023-09-07T01:52:27;98873.38;;;13.62;100.00
64080;BME280;51042;49.696;10.808;2023-09-07T01:54:53;98876.59;;;13.60;100.00
64080;BME280;51042;49.696;10.808;2023-09-07T01:57:20;98872.41;;;13.56;100.00
64080;BME280;51042;49.696;10.808;2023-09-07T01:59:45;98867.75;;;13.53;100.00
64080;BME280;51042;49.696;10.808;2023-09-07T02:02:10;98876.81;;;13.53;100.00
64080;BME280;51042;49.696;10.808;2023-09-07T02:04:35;98869.00;;;13.52;100.00
64080;BME280;51042;49.696;10.808;2023-09-07T02:07:00;98874.50;;;13.52;100.00
64080;BME280;51042;49.696;10.808;2023-09-07T02:09:25;98873.06;;;13.47;100.00
64080;BME280;51042;49.696;10.808;2023-09-07T02:11:51;98875.06;;;13.46;100.00
64080;BME280;51042;49.696;10.808;2023-09-07T02:14:16;98890.16;;;13.42;100.00
64080;BME280;51042;49.696;10.808;2023-09-07T02:16:41;98889.94;;;13.36;100.00
64080;BME280;51042;49.696;10.808;2023-09-07T02:19:06;98881.47;;;13.31;100.00
64080;BME280;51042;49.696;10.808;2023-09-07T02:21:32;98889.84;;;13.27;100.00
64080;BME280;51042;49.696;10.808;2023-09-07T02:23:57;98879.38;;;13.22;100.00
64080;BME280;51042;49.696;10.808;2023-09-07T02:26:22;98883.44;;;13.18;100.00
64080;BME280;51042;49.696;10.808;2023-09-07T02:28:47;98883.13;;;13.16;100.00
64080;BME280;51042;49.696;10.808;2023-09-07T02:31:13;98878.13;;;13.11;100.00
64080;BME280;51042;49.696;10.808;2023-09-07T02:33:38;98877.03;;;13.08;100.00
64080;BME280;51042;49.696;10.808;2023-09-07T02:36:03;98883.75;;;13.07;100.00
64080;BME280;51042;49.696;10.808;2023-09-07T02:38:28;98888.47;;;13.06;100.00
64080;BME280;51042;49.696;10.808;2023-09-07T02:40:55;98890.16;;;13.04;100.00
64080;BME280;51042;49.696;10.808;2023-09-07T02:43:20;98890.16;;;13.04;100.00
64080;BME280;51042;49.696;10.808;2023-09-07T02:45:45;98888.16;;;13.04;100.00
64080;BME280;51042;49.696;10.808;2023-09-07T02:48:10;98891.34;;;13.03;100.00
64080;BME280;51042;49.696;10.808;2023-09-07T02:50:35;98896.09;;;13.02;100.00
64080;BME280;51042;49.696;10.808;2023-09-07T02:53:00;98897.72;;;13.00;100.00
64080;BME280;51042;49.696;10.808;2023-09-07T02:55:26;98904.91;;;12.97;100.00
64080;BME280;51042;49.696;10.808;2023-09-07T02:57:51;98894.44;;;12.92;100.00
64080;BME280;51042;49.696;10.808;2023-09-07T03:00:17;98898.47;;;12.88;100.00
64080;BME280;51042;49.696;10.808;2023-09-07T03:02:42;98905.09;;;12.90;100.00
64080;BME280;51042;49.696;10.808;2023-09-07T03:05:08;98898.03;;;12.89;100.00
64080;BME280;51042;49.696;10.808;2023-09-07T03:07:33;98898.16;;;12.86;100.00
64080;BME280;51042;49.696;10.808;2023-09-07T03:09:58;98890.88;;;12.79;100.00
64080;BME280;51042;49.696;10.808;2023-09-07T03:12:24;98892.19;;;12.75;100.00
64080;BME280;51042;49.696;10.808;2023-09-07T03:14:49;98895.03;;;12.71;100.00
64080;BME280;51042;49.696;10.808;2023-09-07T03:17:15;98892.81;;;12.66;100.00
64080;BME280;51042;49.696;10.808;2023-09-07T03:19:41;98895.22;;;12.64;100.00
64080;BME280;51042;49.696;10.808;2023-09-07T03:22:06;98894.78;;;12.65;100.00
64080;BME280;51042;49.696;10.808;2023-09-07T03:24:31;98903.47;;;12.64;100.00
64080;BME280;51042;49.696;10.808;2023-09-07T03:26:56;98894.22;;;12.58;100.00
64080;BME280;51042;49.696;10.808;2023-09-07T03:29:22;98885.63;;;12.56;100.00
64080;BME280;51042;49.696;10.808;2023-09-07T03:31:48;98881.75;;;12.53;100.00
64080;BME280;51042;49.696;10.808;2023-09-07T03:34:13;98889.69;;;12.51;100.00
64080;BME280;51042;49.696;10.808;2023-09-07T03:36:38;98888.94;;;12.51;100.00
64080;BME280;51042;49.696;10.808;2023-09-07T03:39:04;98889.00;;;12.47;100.00
64080;BME280;51042;49.696;10.808;2023-09-07T03:41:32;98888.25;;;12.47;100.00
64080;BME280;51042;49.696;10.808;2023-09-07T03:43:57;98894.28;;;12.42;100.00
64080;BME280;51042;49.696;10.808;2023-09-07T03:46:24;98892.84;;;12.37;100.00
64080;BME280;51042;49.696;10.808;2023-09-07T03:48:49;98889.41;;;12.33;100.00
64080;BME280;51042;49.696;10.808;2023-09-07T03:51:14;98892.59;;;12.32;100.00
64080;BME280;51042;49.696;10.808;2023-09-07T03:53:39;98890.69;;;12.28;100.00
64080;BME280;51042;49.696;10.808;2023-09-07T03:56:04;98887.19;;;12.28;100.00
64080;BME280;51042;49.696;10.808;2023-09-07T03:58:30;98895.09;;;12.26;100.00
64080;BME280;51042;49.696;10.808;2023-09-07T04:00:58;98906.13;;;12.26;100.00
64080;BME280;51042;49.696;10.808;2023-09-07T04:03:24;98890.47;;;12.23;100.00
64080;BME280;51042;49.696;10.808;2023-09-07T04:05:50;98893.63;;;12.21;100.00
64080;BME280;51042;49.696;10.808;2023-09-07T04:08:15;98895.28;;;12.19;100.00
64080;BME280;51042;49.696;10.808;2023-09-07T04:10:40;98892.66;;;12.15;100.00
64080;BME280;51042;49.696;10.808;2023-09-07T04:13:05;98896.91;;;12.16;100.00
64080;BME280;51042;49.696;10.808;2023-09-07T04:15:31;98899.00;;;12.12;100.00
64080;BME280;51042;49.696;10.808;2023-09-07T04:17:57;98897.44;;;12.11;100.00
64080;BME280;51042;49.696;10.808;2023-09-07T04:20:22;98898.34;;;12.08;100.00
64080;BME280;51042;49.696;10.808;2023-09-07T04:22:47;98902.34;;;12.04;100.00
64080;BME280;51042;49.696;10.808;2023-09-07T04:25:12;98900.06;;;12.02;100.00
64080;BME280;51042;49.696;10.808;2023-09-07T04:27:37;98904.44;;;12.00;100.00
64080;BME280;51042;49.696;10.808;2023-09-07T04:30:02;98898.16;;;11.99;100.00
64080;BME280;51042;49.696;10.808;2023-09-07T04:32:28;98910.81;;;11.97;100.00
64080;BME280;51042;49.696;10.808;2023-09-07T04:34:54;98906.84;;;11.98;100.00
64080;BME280;51042;49.696;10.808;2023-09-07T04:37:19;98907.28;;;11.96;100.00
64080;BME280;51042;49.696;10.808;2023-09-07T04:39:45;98904.19;;;11.94;100.00
64080;BME280;51042;49.696;10.808;2023-09-07T04:42:10;98909.34;;;11.92;100.00
64080;BME280;51042;49.696;10.808;2023-09-07T04:44:35;98908.06;;;11.97;100.00
64080;BME280;51042;49.696;10.808;2023-09-07T04:47:00;98906.75;;;12.01;100.00
64080;BME280;51042;49.696;10.808;2023-09-07T04:49:25;98904.69;;;12.05;100.00
64080;BME280;51042;49.696;10.808;2023-09-07T04:51:54;98920.00;;;12.06;100.00
64080;BME280;51042;49.696;10.808;2023-09-07T04:54:19;98912.50;;;12.07;100.00
64080;BME280;51042;49.696;10.808;2023-09-07T04:56:45;98911.63;;;12.10;100.00
64080;BME280;51042;49.696;10.808;2023-09-07T04:59:10;98920.16;;;12.15;100.00
64080;BME280;51042;49.696;10.808;2023-09-07T05:01:35;98923.47;;;12.23;100.00
64080;BME280;51042;49.696;10.808;2023-09-07T05:04:00;98915.03;;;12.30;100.00
64080;BME280;51042;49.696;10.808;2023-09-07T05:06:28;98922.78;;;12.35;100.00
64080;BME280;51042;49.696;10.808;2023-09-07T05:08:53;98924.53;;;12.71;100.00
64080;BME280;51042;49.696;10.808;2023-09-07T05:11:19;98920.16;;;14.12;100.00
64080;BME280;51042;49.696;10.808;2023-09-07T05:13:44;98921.69;;;15.75;100.00
64080;BME280;51042;49.696;10.808;2023-09-07T05:16:09;98922.63;;;17.27;100.00
64080;BME280;51042;49.696;10.808;2023-09-07T05:18:34;98924.66;;;18.54;95.59
64080;BME280;51042;49.696;10.808;2023-09-07T05:20:59;98919.16;;;19.57;84.73
64080;BME280;51042;49.696;10.808;2023-09-07T05:23:24;98916.59;;;20.29;77.90
64080;BME280;51042;49.696;10.808;2023-09-07T05:25:52;98926.53;;;20.76;74.93
64080;BME280;51042;49.696;10.808;2023-09-07T05:28:17;98924.25;;;21.26;72.30
64080;BME280;51042;49.696;10.808;2023-09-07T05:30:43;98922.00;;;21.62;70.45
64080;BME280;51042;49.696;10.808;2023-09-07T05:33:12;98930.13;;;22.02;69.04
64080;BME280;51042;49.696;10.808;2023-09-07T05:35:37;98933.22;;;22.69;66.97
64080;BME280;51042;49.696;10.808;2023-09-07T05:38:03;98930.97;;;22.84;65.98
64080;BME280;51042;49.696;10.808;2023-09-07T05:40:29;98933.81;;;23.12;64.88
64080;BME280;51042;49.696;10.808;2023-09-07T05:42:54;98937.91;;;23.33;63.25
64080;BME280;51042;49.696;10.808;2023-09-07T05:45:19;98935.91;;;23.50;63.01
64080;BME280;51042;49.696;10.808;2023-09-07T05:47:44;98938.19;;;23.35;62.53
64080;BME280;51042;49.696;10.808;2023-09-07T05:50:09;98944.50;;;22.26;66.35
64080;BME280;51042;49.696;10.808;2023-09-07T05:52:34;98940.38;;;20.45;73.61
64080;BME280;51042;49.696;10.808;2023-09-07T05:55:00;98940.28;;;18.90;83.66
64080;BME280;51042;49.696;10.808;2023-09-07T05:57:25;98949.22;;;17.84;92.06
64080;BME280;51042;49.696;10.808;2023-09-07T05:59:50;98948.09;;;17.07;98.84
64080;BME280;51042;49.696;10.808;2023-09-07T06:02:15;98945.03;;;16.68;100.00
64080;BME280;51042;49.696;10.808;2023-09-07T06:04:41;98948.09;;;16.43;100.00
64080;BME280;51042;49.696;10.808;2023-09-07T06:07:06;98941.47;;;16.22;100.00
64080;BME280;51042;49.696;10.808;2023-09-07T06:09:31;98936.38;;;16.12;100.00
64080;BME280;51042;49.696;10.808;2023-09-07T06:11:56;98936.22;;;16.06;100.00
64080;BME280;51042;49.696;10.808;2023-09-07T06:14:21;98932.84;;;16.02;100.00
64080;BME280;51042;49.696;10.808;2023-09-07T06:16:46;98932.66;;;15.97;100.00
64080;BME280;51042;49.696;10.808;2023-09-07T06:19:12;98932.19;;;15.98;100.00
64080;BME280;51042;49.696;10.808;2023-09-07T06:21:37;98934.06;;;16.01;100.00
64080;BME280;51042;49.696;10.808;2023-09-07T06:24:02;98934.84;;;16.11;100.00
64080;BME280;51042;49.696;10.808;2023-09-07T06:26:27;98938.09;;;16.18;100.00
64080;BME280;51042;49.696;10.808;2023-09-07T06:28:52;98933.47;;;16.24;100.00
64080;BME280;51042;49.696;10.808;2023-09-07T06:31:18;98943.31;;;16.34;100.00
64080;BME280;51042;49.696;10.808;2023-09-07T06:33:43;98943.63;;;16.46;100.00
64080;BME280;51042;49.696;10.808;2023-09-07T06:36:08;98944.25;;;16.59;100.00
64080;BME280;51042;49.696;10.808;2023-09-07T06:38:33;98939.66;;;16.74;100.00
64080;BME280;51042;49.696;10.808;2023-09-07T06:40:58;98937.03;;;16.89;100.00
64080;BME280;51042;49.696;10.808;2023-09-07T06:43:23;98935.94;;;16.95;100.00
64080;BME280;51042;49.696;10.808;2023-09-07T06:45:48;98936.06;;;17.01;100.00
64080;BME280;51042;49.696;10.808;2023-09-07T06:48:14;98933.31;;;17.10;100.00
64080;BME280;51042;49.696;10.808;2023-09-07T06:50:39;98934.94;;;17.26;100.00
64080;BME280;51042;49.696;10.808;2023-09-07T06:53:04;98935.38;;;17.33;100.00
64080;BME280;51042;49.696;10.808;2023-09-07T06:55:29;98937.03;;;17.40;100.00
64080;BME280;51042;49.696;10.808;2023-09-07T06:57:55;98943.78;;;17.57;100.00
64080;BME280;51042;49.696;10.808;2023-09-07T07:00:20;98942.19;;;17.74;100.00
64080;BME280;51042;49.696;10.808;2023-09-07T07:02:45;98935.75;;;17.92;100.00
64080;BME280;51042;49.696;10.808;2023-09-07T07:05:11;98935.16;;;18.12;100.00
64080;BME280;51042;49.696;10.808;2023-09-07T07:07:36;98925.59;;;18.13;100.00
64080;BME280;51042;49.696;10.808;2023-09-07T07:10:01;98926.13;;;18.26;100.00
64080;BME280;51042;49.696;10.808;2023-09-07T07:12:26;98941.13;;;18.43;99.66
64080;BME280;51042;49.696;10.808;2023-09-07T07:14:52;98937.00;;;18.62;99.27
64080;BME280;51042;49.696;10.808;2023-09-07T07:17:18;98926.94;;;18.80;98.76
64080;BME280;51042;49.696;10.808;2023-09-07T07:19:43;98937.69;;;18.87;97.97
64080;BME280;51042;49.696;10.808;2023-09-07T07:22:08;98935.84;;;18.84;96.30
64080;BME280;51042;49.696;10.808;2023-09-07T07:24:34;98942.69;;;18.97;98.15
64080;BME280;51042;49.696;10.808;2023-09-07T07:26:59;98929.56;;;18.98;96.67
64080;BME280;51042;49.696;10.808;2023-09-07T07:29:24;98939.31;;;19.08;94.15
64080;BME280;51042;49.696;10.808;2023-09-07T07:31:49;98933.38;;;19.15;96.12
64080;BME280;51042;49.696;10.808;2023-09-07T07:34:14;98931.16;;;19.34;94.62
64080;BME280;51042;49.696;10.808;2023-09-07T07:36:40;98942.31;;;19.34;89.76
64080;BME280;51042;49.696;10.808;2023-09-07T07:39:05;98933.84;;;19.43;92.32
64080;BME280;51042;49.696;10.808;2023-09-07T07:41:32;98929.53;;;19.56;90.79
64080;BME280;51042;49.696;10.808;2023-09-07T07:43:57;98931.63;;;19.62;88.59
64080;BME280;51042;49.696;10.808;2023-09-07T07:46:22;98933.91;;;19.78;88.73
64080;BME280;51042;49.696;10.808;2023-09-07T07:48:47;98937.56;;;20.04;87.30
64080;BME280;51042;49.696;10.808;2023-09-07T07:51:12;98933.38;;;20.14;87.38
64080;BME280;51042;49.696;10.808;2023-09-07T07:53:38;98934.22;;;20.20;86.01
64080;BME280;51042;49.696;10.808;2023-09-07T07:56:03;98936.41;;;20.31;86.51
64080;BME280;51042;49.696;10.808;2023-09-07T07:58:28;98932.84;;;20.51;85.06
64080;BME280;51042;49.696;10.808;2023-09-07T08:00:53;98932.91;;;20.56;84.76
64080;BME280;51042;49.696;10.808;2023-09-07T08:03:22;98937.97;;;20.78;83.36
64080;BME280;51042;49.696;10.808;2023-09-07T08:05:47;98933.47;;;20.86;83.81
64080;BME280;51042;49.696;10.808;2023-09-07T08:08:13;98940.41;;;20.91;83.40
64080;BME280;51042;49.696;10.808;2023-09-07T08:10:38;98942.72;;;20.98;81.49
64080;BME280;51042;49.696;10.808;2023-09-07T08:13:05;98938.78;;;21.10;81.77
64080;BME280;51042;49.696;10.808;2023-09-07T08:15:31;98935.19;;;21.04;81.52
64080;BME280;51042;49.696;10.808;2023-09-07T08:17:56;98930.50;;;21.15;80.79
64080;BME280;51042;49.696;10.808;2023-09-07T08:20:22;98935.16;;;21.24;81.19
64080;BME280;51042;49.696;10.808;2023-09-07T08:22:47;98940.34;;;21.37;80.61
64080;BME280;51042;49.696;10.808;2023-09-07T08:25:13;98937.97;;;21.61;78.76
64080;BME280;51042;49.696;10.808;2023-09-07T08:27:39;98929.50;;;21.87;77.19
64080;BME280;51042;49.696;10.808;2023-09-07T08:30:08;98944.63;;;22.06;76.28
64080;BME280;51042;49.696;10.808;2023-09-07T08:32:33;98935.59;;;22.22;75.73
64080;BME280;51042;49.696;10.808;2023-09-07T08:34:59;98950.28;;;22.17;74.91
64080;BME280;51042;49.696;10.808;2023-09-07T08:37:26;98941.66;;;22.15;76.16
64080;BME280;51042;49.696;10.808;2023-09-07T08:39:51;98940.91;;;22.20;74.30
64080;BME280;51042;49.696;10.808;2023-09-07T08:42:16;98941.78;;;22.49;73.13
64080;BME280;51042;49.696;10.808;2023-09-07T08:44:41;98941.50;;;22.41;73.72
64080;BME280;51042;49.696;10.808;2023-09-07T08:47:07;98947.91;;;22.53;73.47
64080;BME280;51042;49.696;10.808;2023-09-07T08:49:33;98936.06;;;22.74;72.84
64080;BME280;51042;49.696;10.808;2023-09-07T08:51:58;98937.34;;;22.79;70.92
64080;BME280;51042;49.696;10.808;2023-09-07T08:54:24;98938.63;;;23.00;72.15
64080;BME280;51042;49.696;10.808;2023-09-07T08:56:49;98933.59;;;23.21;69.74
64080;BME280;51042;49.696;10.808;2023-09-07T08:59:15;98943.25;;;23.09;70.61
64080;BME280;51042;49.696;10.808;2023-09-07T09:01:40;98932.81;;;23.37;70.24
64080;BME280;51042;49.696;10.808;2023-09-07T09:04:05;98935.63;;;23.76;69.10
64080;BME280;51042;49.696;10.808;2023-09-07T09:06:31;98921.25;;;24.08;68.54
64080;BME280;51042;49.696;10.808;2023-09-07T09:08:57;98927.13;;;24.10;66.11
64080;BME280;51042;49.696;10.808;2023-09-07T09:11:22;98928.19;;;23.84;63.36
64080;BME280;51042;49.696;10.808;2023-09-07T09:13:48;98918.72;;;24.04;64.14
64080;BME280;51042;49.696;10.808;2023-09-07T09:16:13;98922.22;;;24.32;62.90
64080;BME280;51042;49.696;10.808;2023-09-07T09:18:49;98923.28;;;24.24;61.65
64080;BME280;51042;49.696;10.808;2023-09-07T09:21:17;98922.25;;;24.27;63.15
64080;BME280;51042;49.696;10.808;2023-09-07T09:23:43;98918.59;;;24.49;62.32
64080;BME280;51042;49.696;10.808;2023-09-07T09:26:08;98923.84;;;24.69;59.74
64080;BME280;51042;49.696;10.808;2023-09-07T09:28:33;98920.09;;;24.50;59.61
64080;BME280;51042;49.696;10.808;2023-09-07T09:30:59;98916.66;;;24.73;59.69
64080;BME280;51042;49.696;10.808;2023-09-07T09:33:25;98911.00;;;24.79;58.61
64080;BME280;51042;49.696;10.808;2023-09-07T09:35:51;98912.72;;;24.52;58.06
64080;BME280;51042;49.696;10.808;2023-09-07T09:38:17;98906.56;;;24.59;58.06
64080;BME280;51042;49.696;10.808;2023-09-07T09:40:42;98908.44;;;24.40;58.35
64080;BME280;51042;49.696;10.808;2023-09-07T09:43:08;98905.50;;;24.62;59.69
64080;BME280;51042;49.696;10.808;2023-09-07T09:45:33;98905.06;;;25.29;58.23
64080;BME280;51042;49.696;10.808;2023-09-07T09:48:00;98896.81;;;25.07;54.58
64080;BME280;51042;49.696;10.808;2023-09-07T09:50:26;98911.22;;;24.92;55.31
64080;BME280;51042;49.696;10.808;2023-09-07T09:52:52;98895.38;;;24.95;55.63
64080;BME280;51042;49.696;10.808;2023-09-07T09:55:18;98894.75;;;25.13;55.36
64080;BME280;51042;49.696;10.808;2023-09-07T09:57:43;98895.91;;;25.53;56.84
64080;BME280;51042;49.696;10.808;2023-09-07T10:00:08;98892.59;;;25.54;54.86
64080;BME280;51042;49.696;10.808;2023-09-07T10:05:19;98889.69;;;25.66;54.07
64080;BME280;51042;49.696;10.808;2023-09-07T10:07:45;98894.97;;;25.45;53.57
64080;BME280;51042;49.696;10.808;2023-09-07T10:10:12;98887.59;;;25.42;54.75
64080;BME280;51042;49.696;10.808;2023-09-07T10:12:42;98892.75;;;25.92;54.01
64080;BME280;51042;49.696;10.808;2023-09-07T10:15:19;98892.56;;;25.60;54.07
64080;BME280;51042;49.696;10.808;2023-09-07T10:17:44;98898.41;;;25.86;53.33
64080;BME280;51042;49.696;10.808;2023-09-07T10:20:11;98885.88;;;25.87;52.76
64080;BME280;51042;49.696;10.808;2023-09-07T10:22:36;98886.94;;;26.09;53.86
64080;BME280;51042;49.696;10.808;2023-09-07T10:25:01;98883.34;;;26.08;50.87
64080;BME280;51042;49.696;10.808;2023-09-07T10:27:36;98882.06;;;26.33;52.17
64080;BME280;51042;49.696;10.808;2023-09-07T10:30:01;98873.97;;;26.24;50.18
64080;BME280;51042;49.696;10.808;2023-09-07T10:32:40;98883.53;;;26.16;50.89
64080;BME280;51042;49.696;10.808;2023-09-07T10:35:15;98876.38;;;26.15;50.27
64080;BME280;51042;49.696;10.808;2023-09-07T10:37:42;98879.53;;;26.67;50.08
64080;BME280;51042;49.696;10.808;2023-09-07T10:40:09;98868.19;;;26.54;49.15
64080;BME280;51042;49.696;10.808;2023-09-07T10:42:36;98874.06;;;26.37;50.53
64080;BME280;51042;49.696;10.808;2023-09-07T10:45:12;98870.00;;;26.70;48.54
64080;BME280;51042;49.696;10.808;2023-09-07T10:47:41;98857.53;;;26.66;48.39
64080;BME280;51042;49.696;10.808;2023-09-07T10:50:08;98865.81;;;26.58;47.55
64080;BME280;51042;49.696;10.808;2023-09-07T10:52:33;98859.66;;;26.78;49.74
64080;BME280;51042;49.696;10.808;2023-09-07T10:54:58;98856.59;;;26.76;49.27
64080;BME280;51042;49.696;10.808;2023-09-07T10:57:23;98853.78;;;26.76;47.64
64080;BME280;51042;49.696;10.808;2023-09-07T10:59:49;98853.69;;;26.82;48.08
64080;BME280;51042;49.696;10.808;2023-09-07T11:02:14;98844.94;;;27.17;46.24
64080;BME280;51042;49.696;10.808;2023-09-07T11:04:40;98841.03;;;27.07;47.51
64080;BME280;51042;49.696;10.808;2023-09-07T11:07:05;98842.03;;;27.10;45.50
64080;BME280;51042;49.696;10.808;2023-09-07T11:09:31;98835.66;;;27.23;46.71
64080;BME280;51042;49.696;10.808;2023-09-07T11:11:56;98837.59;;;27.14;44.20
64080;BME280;51042;49.696;10.808;2023-09-07T11:14:21;98832.09;;;27.22;43.85
64080;BME280;51042;49.696;10.808;2023-09-07T11:16:47;98836.34;;;26.78;45.58
64080;BME280;51042;49.696;10.808;2023-09-07T11:19:12;98830.19;;;27.11;46.21
64080;BME280;51042;49.696;10.808;2023-09-07T11:21:38;98829.66;;;27.58;45.30
64080;BME280;51042;49.696;10.808;2023-09-07T11:24:04;98829.66;;;27.71;46.70
64080;BME280;51042;49.696;10.808;2023-09-07T11:26:40;98831.28;;;28.06;46.38
64080;BME280;51042;49.696;10.808;2023-09-07T11:29:05;98821.31;;;28.18;45.19
64080;BME280;51042;49.696;10.808;2023-09-07T11:31:30;98826.16;;;28.05;46.60
64080;BME280;51042;49.696;10.808;2023-09-07T11:33:55;98825.38;;;28.30;45.27
64080;BME280;51042;49.696;10.808;2023-09-07T11:36:21;98825.94;;;27.89;48.88
64080;BME280;51042;49.696;10.808;2023-09-07T11:38:49;98831.84;;;28.72;47.67
64080;BME280;51042;49.696;10.808;2023-09-07T11:41:14;98831.56;;;29.17;45.56
64080;BME280;51042;49.696;10.808;2023-09-07T11:43:39;98825.50;;;28.93;45.22
64080;BME280;51042;49.696;10.808;2023-09-07T11:46:06;98831.00;;;28.43;46.26
64080;BME280;51042;49.696;10.808;2023-09-07T11:48:32;98819.78;;;28.51;45.87
64080;BME280;51042;49.696;10.808;2023-09-07T11:50:58;98827.66;;;29.00;45.28
64080;BME280;51042;49.696;10.808;2023-09-07T11:53:24;98823.66;;;29.37;45.17
64080;BME280;51042;49.696;10.808;2023-09-07T11:55:49;98818.75;;;29.16;44.96
64080;BME280;51042;49.696;10.808;2023-09-07T11:58:14;98820.88;;;29.44;44.46
64080;BME280;51042;49.696;10.808;2023-09-07T12:00:39;98820.75;;;29.08;46.03
64080;BME280;51042;49.696;10.808;2023-09-07T12:03:06;98816.28;;;29.13;45.19
64080;BME280;51042;49.696;10.808;2023-09-07T12:05:31;98815.63;;;29.28;45.68
64080;BME280;51042;49.696;10.808;2023-09-07T12:07:57;98819.56;;;29.45;45.77
64080;BME280;51042;49.696;10.808;2023-09-07T12:10:22;98815.09;;;29.08;45.43
64080;BME280;51042;49.696;10.808;2023-09-07T12:12:47;98810.34;;;29.03;45.74
64080;BME280;51042;49.696;10.808;2023-09-07T12:15:12;98807.09;;;28.99;46.16
64080;BME280;51042;49.696;10.808;2023-09-07T12:17:38;98803.81;;;28.88;47.39
64080;BME280;51042;49.696;10.808;2023-09-07T12:20:03;98805.69;;;28.72;48.00
64080;BME280;51042;49.696;10.808;2023-09-07T12:22:30;98802.44;;;29.02;46.19
64080;BME280;51042;49.696;10.808;2023-09-07T12:24:55;98800.94;;;29.29;46.11
64080;BME280;51042;49.696;10.808;2023-09-07T12:27:20;98803.84;;;29.16;47.33
64080;BME280;51042;49.696;10.808;2023-09-07T12:29:46;98797.00;;;28.70;47.11
64080;BME280;51042;49.696;10.808;2023-09-07T12:32:11;98797.91;;;28.65;47.69
64080;BME280;51042;49.696;10.808;2023-09-07T12:34:36;98793.06;;;28.73;47.79
64080;BME280;51042;49.696;10.808;2023-09-07T12:37:02;98789.44;;;29.55;46.92
64080;BME280;51042;49.696;10.808;2023-09-07T12:39:29;98789.16;;;30.02;45.01
64080;BME280;51042;49.696;10.808;2023-09-07T12:41:54;98793.06;;;29.92;44.96